Terminal Aerodrome Forecast
Issued by NWS Northern Indiana

Home | Current Version | Previous Version | Graphics & Text | Print | Product List | Glossary On
Versions: 1 2 3 4 5 6 7 8 9 10 11 12
000
FTUS43 KIWX 082300
TAFFWA
TAF
KFWA 082336Z 0900/0924 27010KT P6SM SCT050
     FM091200 32010KT P6SM BKN035
     FM091800 29012KT P6SM SCT035=

USA.gov is the U.S. government's official web portal to all federal, state and local government web resources and services.